sensor_id;sensor_type;location;lat;lon;timestamp;pressure;altitude;pressure_sealevel;temperature;humidity
6899;BME280;3488;42.616;23.350;2023-03-12T00:00:48;62231.84;;;2.28;73.87
6899;BME280;3488;42.616;23.350;2023-03-12T00:03:15;62237.34;;;2.26;75.21
6899;BME280;3488;42.616;23.350;2023-03-12T00:05:43;62229.84;;;2.28;76.18
6899;BME280;3488;42.616;23.350;2023-03-12T00:08:11;62230.25;;;2.24;75.56
6899;BME280;3488;42.616;23.350;2023-03-12T00:10:40;62226.66;;;2.20;74.99
6899;BME280;3488;42.616;23.350;2023-03-12T00:13:07;62229.09;;;2.18;75.57
6899;BME280;3488;42.616;23.350;2023-03-12T00:15:35;62225.56;;;2.17;76.43
6899;BME280;3488;42.616;23.350;2023-03-12T00:18:03;62218.38;;;2.10;75.53
6899;BME280;3488;42.616;23.350;2023-03-12T00:20:29;62213.81;;;2.08;76.41
6899;BME280;3488;42.616;23.350;2023-03-12T00:22:57;62215.41;;;2.12;75.16
6899;BME280;3488;42.616;23.350;2023-03-12T00:25:24;62220.47;;;2.14;74.26
6899;BME280;3488;42.616;23.350;2023-03-12T00:27:52;62213.81;;;2.08;74.54
6899;BME280;3488;42.616;23.350;2023-03-12T00:30:20;62211.25;;;2.05;74.93
6899;BME280;3488;42.616;23.350;2023-03-12T00:32:47;62197.50;;;1.97;74.76
6899;BME280;3488;42.616;23.350;2023-03-12T00:35:14;62205.53;;;1.97;72.15
6899;BME280;3488;42.616;23.350;2023-03-12T00:37:41;62202.50;;;1.97;71.13
6899;BME280;3488;42.616;23.350;2023-03-12T00:40:09;62203.59;;;2.00;69.57
6899;BME280;3488;42.616;23.350;2023-03-12T00:42:37;62203.09;;;2.00;69.43
6899;BME280;3488;42.616;23.350;2023-03-12T00:45:06;62202.50;;;1.97;71.14
6899;BME280;3488;42.616;23.350;2023-03-12T00:47:34;62202.47;;;1.94;69.66
6899;BME280;3488;42.616;23.350;2023-03-12T00:50:01;62195.47;;;1.95;71.53
6899;BME280;3488;42.616;23.350;2023-03-12T00:52:28;62190.72;;;1.85;70.50
6899;BME280;3488;42.616;23.350;2023-03-12T00:54:55;62197.91;;;1.92;67.92
6899;BME280;3488;42.616;23.350;2023-03-12T00:57:23;62187.56;;;1.80;69.01
6899;BME280;3488;42.616;23.350;2023-03-12T00:59:50;62203.03;;;1.97;61.31
6899;BME280;3488;42.616;23.350;2023-03-12T01:02:19;62205.59;;;2.00;66.26
6899;BME280;3488;42.616;23.350;2023-03-12T01:04:46;62190.19;;;1.85;69.16
6899;BME280;3488;42.616;23.350;2023-03-12T01:07:14;62202.91;;;1.92;68.49
6899;BME280;3488;42.616;23.350;2023-03-12T01:09:41;62188.72;;;1.86;68.00
6899;BME280;3488;42.616;23.350;2023-03-12T01:12:08;62184.59;;;1.82;69.27
6899;BME280;3488;42.616;23.350;2023-03-12T01:14:35;62182.44;;;1.75;70.95
6899;BME280;3488;42.616;23.350;2023-03-12T01:17:02;62170.63;;;1.63;75.07
6899;BME280;3488;42.616;23.350;2023-03-12T01:19:30;62170.63;;;1.63;72.00
6899;BME280;3488;42.616;23.350;2023-03-12T01:21:58;62176.84;;;1.72;75.92
6899;BME280;3488;42.616;23.350;2023-03-12T01:24:25;62173.66;;;1.64;76.49
6899;BME280;3488;42.616;23.350;2023-03-12T01:26:52;62154.91;;;1.55;75.26
6899;BME280;3488;42.616;23.350;2023-03-12T01:29:19;62161.00;;;1.59;71.76
6899;BME280;3488;42.616;23.350;2023-03-12T01:31:46;62173.25;;;1.68;69.20
6899;BME280;3488;42.616;23.350;2023-03-12T01:34:13;62178.97;;;1.76;70.81
6899;BME280;3488;42.616;23.350;2023-03-12T01:36:42;62175.31;;;1.70;72.02
6899;BME280;3488;42.616;23.350;2023-03-12T01:39:12;62179.38;;;1.72;68.51
6899;BME280;3488;42.616;23.350;2023-03-12T01:41:40;62174.28;;;1.69;70.12
6899;BME280;3488;42.616;23.350;2023-03-12T01:44:12;62171.78;;;1.69;71.33
6899;BME280;3488;42.616;23.350;2023-03-12T01:46:40;62173.19;;;1.66;71.81
6899;BME280;3488;42.616;23.350;2023-03-12T01:49:10;62179.94;;;1.75;65.35
6899;BME280;3488;42.616;23.350;2023-03-12T01:51:40;62186.56;;;1.79;68.05
6899;BME280;3488;42.616;23.350;2023-03-12T01:54:12;62180.50;;;1.78;69.29
6899;BME280;3488;42.616;23.350;2023-03-12T01:56:41;62183.97;;;1.76;62.81
6899;BME280;3488;42.616;23.350;2023-03-12T01:59:13;62196.88;;;1.91;61.35
6899;BME280;3488;42.616;23.350;2023-03-12T02:01:42;62197.25;;;1.87;61.65
6899;BME280;3488;42.616;23.350;2023-03-12T02:04:10;62183.53;;;1.78;62.90
6899;BME280;3488;42.616;23.350;2023-03-12T02:06:40;62188.72;;;1.86;65.27
6899;BME280;3488;42.616;23.350;2023-03-12T02:09:11;62183.59;;;1.81;61.99
6899;BME280;3488;42.616;23.350;2023-03-12T02:11:40;62192.25;;;1.87;59.59
6899;BME280;3488;42.616;23.350;2023-03-12T02:14:06;62187.69;;;1.85;59.02
6899;BME280;3488;42.616;23.350;2023-03-12T02:16:34;62196.38;;;1.91;60.85
6899;BME280;3488;42.616;23.350;2023-03-12T02:19:01;62191.63;;;1.81;58.97
6899;BME280;3488;42.616;23.350;2023-03-12T02:21:31;62195.09;;;1.80;58.76
6899;BME280;3488;42.616;23.350;2023-03-12T02:24:04;62185.56;;;1.80;57.94
6899;BME280;3488;42.616;23.350;2023-03-12T02:26:35;62182.91;;;1.73;59.65
6899;BME280;3488;42.616;23.350;2023-03-12T02:29:03;62179.88;;;1.72;59.89
6899;BME280;3488;42.616;23.350;2023-03-12T02:31:36;62166.13;;;1.64;59.46
6899;BME280;3488;42.616;23.350;2023-03-12T02:34:04;62177.94;;;1.75;59.17
6899;BME280;3488;42.616;23.350;2023-03-12T02:36:31;62170.22;;;1.68;60.85
6899;BME280;3488;42.616;23.350;2023-03-12T02:38:58;62161.50;;;1.59;60.18
6899;BME280;3488;42.616;23.350;2023-03-12T02:41:27;62171.16;;;1.64;62.01
6899;BME280;3488;42.616;23.350;2023-03-12T02:44:00;62167.06;;;1.60;56.25
6899;BME280;3488;42.616;23.350;2023-03-12T02:46:30;62173.19;;;1.66;55.40
6899;BME280;3488;42.616;23.350;2023-03-12T02:49:00;62163.00;;;1.58;59.74
6899;BME280;3488;42.616;23.350;2023-03-12T02:51:29;62163.00;;;1.58;56.70
6899;BME280;3488;42.616;23.350;2023-03-12T02:53:56;62158.97;;;1.57;55.81
6899;BME280;3488;42.616;23.350;2023-03-12T02:56:24;62174.81;;;1.70;55.83
6899;BME280;3488;42.616;23.350;2023-03-12T02:58:52;62174.28;;;1.69;57.78
6899;BME280;3488;42.616;23.350;2023-03-12T03:01:20;62166.59;;;1.62;56.43
6899;BME280;3488;42.616;23.350;2023-03-12T03:03:47;62164.53;;;1.60;57.82
6899;BME280;3488;42.616;23.350;2023-03-12T03:06:14;62177.31;;;1.70;54.55
6899;BME280;3488;42.616;23.350;2023-03-12T03:08:41;62179.94;;;1.75;53.13
6899;BME280;3488;42.616;23.350;2023-03-12T03:11:09;62179.38;;;1.72;51.97
6899;BME280;3488;42.616;23.350;2023-03-12T03:13:36;62185.50;;;1.78;51.63
6899;BME280;3488;42.616;23.350;2023-03-12T03:16:03;62184.59;;;1.82;50.27
6899;BME280;3488;42.616;23.350;2023-03-12T03:18:31;62192.19;;;1.84;50.58
6899;BME280;3488;42.616;23.350;2023-03-12T03:21:00;62190.19;;;1.85;49.91
6899;BME280;3488;42.616;23.350;2023-03-12T03:23:28;62197.44;;;1.94;49.42
6899;BME280;3488;42.616;23.350;2023-03-12T03:25:55;62191.22;;;1.86;49.25
6899;BME280;3488;42.616;23.350;2023-03-12T03:28:24;62193.41;;;1.93;49.25
6899;BME280;3488;42.616;23.350;2023-03-12T03:30:52;62191.22;;;1.86;48.98
6899;BME280;3488;42.616;23.350;2023-03-12T03:33:19;62195.72;;;1.85;49.10
6899;BME280;3488;42.616;23.350;2023-03-12T03:35:48;62192.25;;;1.87;49.01
6899;BME280;3488;42.616;23.350;2023-03-12T03:38:15;62193.28;;;1.88;48.86
6899;BME280;3488;42.616;23.350;2023-03-12T03:40:42;62196.38;;;1.91;48.47
6899;BME280;3488;42.616;23.350;2023-03-12T03:43:08;62202.00;;;1.96;48.93
6899;BME280;3488;42.616;23.350;2023-03-12T03:45:35;62198.47;;;1.95;49.79
6899;BME280;3488;42.616;23.350;2023-03-12T03:48:02;62194.25;;;1.86;49.61
6899;BME280;3488;42.616;23.350;2023-03-12T03:50:30;62194.31;;;1.89;49.81
6899;BME280;3488;42.616;23.350;2023-03-12T03:52:58;62190.25;;;1.87;50.34
6899;BME280;3488;42.616;23.350;2023-03-12T03:55:25;62195.31;;;1.90;50.27
6899;BME280;3488;42.616;23.350;2023-03-12T03:57:53;62200.97;;;1.95;51.20
6899;BME280;3488;42.616;23.350;2023-03-12T04:00:20;62201.44;;;1.93;51.04
6899;BME280;3488;42.616;23.350;2023-03-12T04:02:47;62197.72;;;1.85;50.73
6899;BME280;3488;42.616;23.350;2023-03-12T04:05:14;62187.19;;;1.84;51.17
6899;BME280;3488;42.616;23.350;2023-03-12T04:07:43;62192.69;;;1.85;51.20
6899;BME280;3488;42.616;23.350;2023-03-12T04:10:13;62194.25;;;1.86;50.86
6899;BME280;3488;42.616;23.350;2023-03-12T04:12:40;62187.19;;;1.84;50.45
6899;BME280;3488;42.616;23.350;2023-03-12T04:15:07;62187.06;;;1.79;50.81
6899;BME280;3488;42.616;23.350;2023-03-12T04:17:34;62183.00;;;1.78;50.53
6899;BME280;3488;42.616;23.350;2023-03-12T04:20:01;62177.88;;;1.73;50.03
6899;BME280;3488;42.616;23.350;2023-03-12T04:22:31;62185.06;;;1.80;51.02
6899;BME280;3488;42.616;23.350;2023-03-12T04:24:58;62183.94;;;1.74;51.24
6899;BME280;3488;42.616;23.350;2023-03-12T04:27:27;62180.91;;;1.73;51.42
6899;BME280;3488;42.616;23.350;2023-03-12T04:29:54;62174.81;;;1.70;50.86
6899;BME280;3488;42.616;23.350;2023-03-12T04:32:21;62180.97;;;1.76;50.83
6899;BME280;3488;42.616;23.350;2023-03-12T04:34:48;62175.88;;;1.73;51.33
6899;BME280;3488;42.616;23.350;2023-03-12T04:37:15;62169.22;;;1.67;51.02
6899;BME280;3488;42.616;23.350;2023-03-12T04:39:43;62181.41;;;1.74;51.16
6899;BME280;3488;42.616;23.350;2023-03-12T04:42:10;62178.47;;;1.76;51.11
6899;BME280;3488;42.616;23.350;2023-03-12T04:44:40;62167.69;;;1.65;50.12
6899;BME280;3488;42.616;23.350;2023-03-12T04:47:08;62172.19;;;1.65;49.77
6899;BME280;3488;42.616;23.350;2023-03-12T04:49:37;62175.38;;;1.73;49.49
6899;BME280;3488;42.616;23.350;2023-03-12T04:52:04;62182.00;;;1.77;49.67
6899;BME280;3488;42.616;23.350;2023-03-12T04:54:31;62182.00;;;1.77;49.55
6899;BME280;3488;42.616;23.350;2023-03-12T04:56:59;62180.38;;;1.73;48.59
6899;BME280;3488;42.616;23.350;2023-03-12T04:59:26;62185.00;;;1.77;49.30
6899;BME280;3488;42.616;23.350;2023-03-12T05:01:54;62182.44;;;1.75;49.05
6899;BME280;3488;42.616;23.350;2023-03-12T05:04:21;62178.97;;;1.76;48.90
6899;BME280;3488;42.616;23.350;2023-03-12T05:06:48;62186.16;;;1.83;48.87
6899;BME280;3488;42.616;23.350;2023-03-12T05:09:15;62177.94;;;1.75;48.33
6899;BME280;3488;42.616;23.350;2023-03-12T05:11:42;62185.56;;;1.80;47.64
6899;BME280;3488;42.616;23.350;2023-03-12T05:14:10;62199.88;;;1.92;47.82
6899;BME280;3488;42.616;23.350;2023-03-12T05:16:38;62194.31;;;1.89;48.73
6899;BME280;3488;42.616;23.350;2023-03-12T05:19:06;62187.69;;;1.85;49.15
6899;BME280;3488;42.616;23.350;2023-03-12T05:21:34;62198.97;;;1.96;49.18
6899;BME280;3488;42.616;23.350;2023-03-12T05:24:01;62205.59;;;2.00;48.76
6899;BME280;3488;42.616;23.350;2023-03-12T05:26:29;62208.22;;;2.05;48.56
6899;BME280;3488;42.616;23.350;2023-03-12T05:28:57;62212.72;;;2.04;48.56
6899;BME280;3488;42.616;23.350;2023-03-12T05:31:24;62216.25;;;2.05;48.54
6899;BME280;3488;42.616;23.350;2023-03-12T05:33:51;62219.97;;;2.14;48.14
6899;BME280;3488;42.616;23.350;2023-03-12T05:36:20;62211.81;;;2.08;48.63
6899;BME280;3488;42.616;23.350;2023-03-12T05:38:47;62218.44;;;2.12;47.47
6899;BME280;3488;42.616;23.350;2023-03-12T05:41:18;62233.25;;;2.24;47.21
6899;BME280;3488;42.616;23.350;2023-03-12T05:43:46;62223.09;;;2.19;46.39
6899;BME280;3488;42.616;23.350;2023-03-12T05:46:13;62237.81;;;2.26;46.26
6899;BME280;3488;42.616;23.350;2023-03-12T05:48:40;62231.72;;;2.23;45.94
6899;BME280;3488;42.616;23.350;2023-03-12T05:51:07;62236.91;;;2.30;44.72
6899;BME280;3488;42.616;23.350;2023-03-12T05:53:37;62250.75;;;2.42;45.25
6899;BME280;3488;42.616;23.350;2023-03-12T05:56:06;62257.91;;;2.49;44.97
6899;BME280;3488;42.616;23.350;2023-03-12T05:58:34;62263.53;;;2.52;44.67
6899;BME280;3488;42.616;23.350;2023-03-12T06:01:03;62261.50;;;2.52;45.26
6899;BME280;3488;42.616;23.350;2023-03-12T06:03:30;62264.16;;;2.57;45.67
6899;BME280;3488;42.616;23.350;2023-03-12T06:05:57;62269.41;;;2.67;44.11
6899;BME280;3488;42.616;23.350;2023-03-12T06:08:24;62272.81;;;2.63;44.01
6899;BME280;3488;42.616;23.350;2023-03-12T06:10:53;62278.53;;;2.71;43.69
6899;BME280;3488;42.616;23.350;2023-03-12T06:13:19;62282.06;;;2.72;44.09
6899;BME280;3488;42.616;23.350;2023-03-12T06:15:47;62278.41;;;2.66;44.66
6899;BME280;3488;42.616;23.350;2023-03-12T06:18:14;62282.63;;;2.75;45.67
6899;BME280;3488;42.616;23.350;2023-03-12T06:20:41;62282.13;;;2.75;45.52
6899;BME280;3488;42.616;23.350;2023-03-12T06:23:08;62283.59;;;2.74;47.89
6899;BME280;3488;42.616;23.350;2023-03-12T06:25:35;62243.53;;;2.34;48.32
6899;BME280;3488;42.616;23.350;2023-03-12T06:28:06;62239.53;;;2.35;49.02
6899;BME280;3488;42.616;23.350;2023-03-12T06:30:33;62229.22;;;2.23;50.63
6899;BME280;3488;42.616;23.350;2023-03-12T06:33:00;62232.31;;;2.26;49.76
6899;BME280;3488;42.616;23.350;2023-03-12T06:35:28;62227.69;;;2.21;51.38
6899;BME280;3488;42.616;23.350;2023-03-12T06:37:55;62240.53;;;2.34;50.06
6899;BME280;3488;42.616;23.350;2023-03-12T06:40:22;62250.25;;;2.44;50.19
6899;BME280;3488;42.616;23.350;2023-03-12T06:42:48;62263.53;;;2.52;50.67
6899;BME280;3488;42.616;23.350;2023-03-12T06:45:18;62260.03;;;2.53;50.21
6899;BME280;3488;42.616;23.350;2023-03-12T06:47:44;62273.91;;;2.67;50.38
6899;BME280;3488;42.616;23.350;2023-03-12T06:50:11;62280.97;;;2.69;48.66
6899;BME280;3488;42.616;23.350;2023-03-12T06:52:38;62258.59;;;2.57;49.82
6899;BME280;3488;42.616;23.350;2023-03-12T06:55:07;62277.50;;;2.70;49.60
6899;BME280;3488;42.616;23.350;2023-03-12T06:57:34;62287.72;;;2.78;48.70
6899;BME280;3488;42.616;23.350;2023-03-12T07:00:01;62283.19;;;2.78;48.79
6899;BME280;3488;42.616;23.350;2023-03-12T07:02:29;62286.75;;;2.79;49.95
6899;BME280;3488;42.616;23.350;2023-03-12T07:04:56;62282.56;;;2.73;50.33
6899;BME280;3488;42.616;23.350;2023-03-12T07:07:23;62288.34;;;2.83;51.34
6899;BME280;3488;42.616;23.350;2023-03-12T07:09:50;62303.69;;;2.96;50.21
6899;BME280;3488;42.616;23.350;2023-03-12T07:12:17;62292.88;;;2.83;50.32
6899;BME280;3488;42.616;23.350;2023-03-12T07:14:44;62266.25;;;2.62;51.23
6899;BME280;3488;42.616;23.350;2023-03-12T07:17:12;62270.31;;;2.63;51.64
6899;BME280;3488;42.616;23.350;2023-03-12T07:19:40;62283.66;;;2.76;53.93
6899;BME280;3488;42.616;23.350;2023-03-12T07:22:07;62255.81;;;2.44;60.46
6899;BME280;3488;42.616;23.350;2023-03-12T07:24:34;62210.19;;;2.02;63.83
6899;BME280;3488;42.616;23.350;2023-03-12T07:27:01;62191.16;;;1.83;67.70
6899;BME280;3488;42.616;23.350;2023-03-12T07:29:29;62181.53;;;1.79;66.46
6899;BME280;3488;42.616;23.350;2023-03-12T07:31:55;62183.13;;;1.83;64.45
6899;BME280;3488;42.616;23.350;2023-03-12T07:34:22;62222.09;;;2.18;62.54
6899;BME280;3488;42.616;23.350;2023-03-12T07:36:51;62231.84;;;2.28;62.71
6899;BME280;3488;42.616;23.350;2023-03-12T07:39:19;62238.81;;;2.25;62.47
6899;BME280;3488;42.616;23.350;2023-03-12T07:41:46;62210.19;;;2.02;63.92
6899;BME280;3488;42.616;23.350;2023-03-12T07:44:13;62226.69;;;2.23;65.58
6899;BME280;3488;42.616;23.350;2023-03-12T07:46:40;62248.72;;;2.42;66.06
6899;BME280;3488;42.616;23.350;2023-03-12T07:49:07;62254.91;;;2.48;62.03
6899;BME280;3488;42.616;23.350;2023-03-12T07:51:34;62233.84;;;2.27;63.24
6899;BME280;3488;42.616;23.350;2023-03-12T07:54:03;62263.63;;;2.57;60.45
6899;BME280;3488;42.616;23.350;2023-03-12T07:56:30;62298.03;;;2.90;52.49
6899;BME280;3488;42.616;23.350;2023-03-12T07:58:57;62304.25;;;2.99;52.05
6899;BME280;3488;42.616;23.350;2023-03-12T08:01:24;62322.25;;;3.16;51.65
6899;BME280;3488;42.616;23.350;2023-03-12T08:03:56;62295.53;;;2.90;56.17
6899;BME280;3488;42.616;23.350;2023-03-12T08:06:23;62316.03;;;3.08;55.68
6899;BME280;3488;42.616;23.350;2023-03-12T08:08:50;62319.06;;;3.08;55.54
6899;BME280;3488;42.616;23.350;2023-03-12T08:11:18;62289.31;;;2.82;53.91
6899;BME280;3488;42.616;23.350;2023-03-12T08:13:45;62306.31;;;3.01;54.12
6899;BME280;3488;42.616;23.350;2023-03-12T08:16:12;62301.59;;;2.91;53.96
6899;BME280;3488;42.616;23.350;2023-03-12T08:18:40;62272.31;;;2.63;54.98
6899;BME280;3488;42.616;23.350;2023-03-12T08:21:08;62268.81;;;2.64;55.67
6899;BME280;3488;42.616;23.350;2023-03-12T08:23:35;62261.63;;;2.57;54.46
6899;BME280;3488;42.616;23.350;2023-03-12T08:26:02;62298.50;;;2.88;54.92
6899;BME280;3488;42.616;23.350;2023-03-12T08:28:31;62272.50;;;2.73;53.44
6899;BME280;3488;42.616;23.350;2023-03-12T08:30:59;62289.75;;;2.80;52.83
6899;BME280;3488;42.616;23.350;2023-03-12T08:33:26;62294.41;;;2.84;52.84
6899;BME280;3488;42.616;23.350;2023-03-12T08:35:54;62301.19;;;2.96;53.90
6899;BME280;3488;42.616;23.350;2023-03-12T08:38:22;62306.78;;;2.99;52.35
6899;BME280;3488;42.616;23.350;2023-03-12T08:40:54;62312.50;;;3.07;51.70
6899;BME280;3488;42.616;23.350;2023-03-12T08:43:21;62335.47;;;3.22;51.85
6899;BME280;3488;42.616;23.350;2023-03-12T08:45:53;62318.13;;;3.12;52.65
6899;BME280;3488;42.616;23.350;2023-03-12T08:48:20;62339.69;;;3.31;54.07
6899;BME280;3488;42.616;23.350;2023-03-12T08:50:47;62310.84;;;3.00;54.70
6899;BME280;3488;42.616;23.350;2023-03-12T08:53:14;62331.50;;;3.25;53.99
6899;BME280;3488;42.616;23.350;2023-03-12T08:55:42;62314.94;;;3.04;53.48
6899;BME280;3488;42.616;23.350;2023-03-12T08:58:10;62353.03;;;3.44;53.12
6899;BME280;3488;42.616;23.350;2023-03-12T09:00:37;62331.56;;;3.28;53.45
6899;BME280;3488;42.616;23.350;2023-03-12T09:03:05;62362.84;;;3.56;52.35
6899;BME280;3488;42.616;23.350;2023-03-12T09:05:33;62366.91;;;3.58;51.72
6899;BME280;3488;42.616;23.350;2023-03-12T09:07:59;62371.16;;;3.67;52.12
6899;BME280;3488;42.616;23.350;2023-03-12T09:10:27;62363.84;;;3.54;50.15
6899;BME280;3488;42.616;23.350;2023-03-12T09:12:54;62374.69;;;3.68;52.38
6899;BME280;3488;42.616;23.350;2023-03-12T09:15:21;62345.78;;;3.34;51.39
6899;BME280;3488;42.616;23.350;2023-03-12T09:17:47;62332.41;;;3.21;52.38
6899;BME280;3488;42.616;23.350;2023-03-12T09:20:16;62310.44;;;3.05;51.78
6899;BME280;3488;42.616;23.350;2023-03-12T09:22:44;62353.94;;;3.40;51.01
6899;BME280;3488;42.616;23.350;2023-03-12T09:25:11;62363.31;;;3.54;51.87
6899;BME280;3488;42.616;23.350;2023-03-12T09:27:40;62383.38;;;3.74;51.88
6899;BME280;3488;42.616;23.350;2023-03-12T09:30:11;62396.81;;;3.89;51.94
6899;BME280;3488;42.616;23.350;2023-03-12T09:32:38;62361.72;;;3.50;50.46
6899;BME280;3488;42.616;23.350;2023-03-12T09:35:07;62326.31;;;3.18;51.74
6899;BME280;3488;42.616;23.350;2023-03-12T09:37:35;62332.59;;;3.29;51.46
6899;BME280;3488;42.616;23.350;2023-03-12T09:40:03;62361.72;;;3.50;53.36
6899;BME280;3488;42.616;23.350;2023-03-12T09:42:36;62389.03;;;3.79;51.98
6899;BME280;3488;42.616;23.350;2023-03-12T09:45:07;62372.63;;;3.66;51.59
6899;BME280;3488;42.616;23.350;2023-03-12T09:47:45;62358.69;;;3.49;52.43
6899;BME280;3488;42.616;23.350;2023-03-12T09:50:20;62365.91;;;3.57;53.23
6899;BME280;3488;42.616;23.350;2023-03-12T09:52:54;62369.03;;;3.62;51.51
6899;BME280;3488;42.616;23.350;2023-03-12T09:55:23;62380.81;;;3.71;52.25
6899;BME280;3488;42.616;23.350;2023-03-12T09:57:52;62429.16;;;4.18;51.37
6899;BME280;3488;42.616;23.350;2023-03-12T10:00:22;62416.81;;;4.06;50.01
6899;BME280;3488;42.616;23.350;2023-03-12T10:03:18;62417.31;;;4.07;50.98
6899;BME280;3488;42.616;23.350;2023-03-12T10:06:00;62434.28;;;4.23;51.89
6899;BME280;3488;42.616;23.350;2023-03-12T10:08:42;62441.47;;;4.28;49.19
6899;BME280;3488;42.616;23.350;2023-03-12T10:11:21;62457.44;;;4.46;49.23
6899;BME280;3488;42.616;23.350;2023-03-12T10:14:02;62466.16;;;4.52;49.36
6899;BME280;3488;42.616;23.350;2023-03-12T10:16:46;62425.03;;;4.14;50.19
6899;BME280;3488;42.616;23.350;2023-03-12T10:19:33;62463.16;;;4.54;50.72
6899;BME280;3488;42.616;23.350;2023-03-12T10:22:06;62484.22;;;4.72;49.04
6899;BME280;3488;42.616;23.350;2023-03-12T10:24:50;62442.03;;;4.31;49.29
6899;BME280;3488;42.616;23.350;2023-03-12T10:27:21;62428.03;;;4.12;49.63
6899;BME280;3488;42.616;23.350;2023-03-12T10:29:51;62446.59;;;4.33;50.81
6899;BME280;3488;42.616;23.350;2023-03-12T10:32:22;62448.66;;;4.35;50.02
6899;BME280;3488;42.616;23.350;2023-03-12T10:34:53;62430.13;;;4.17;50.31
6899;BME280;3488;42.616;23.350;2023-03-12T10:37:24;62441.47;;;4.28;51.24
6899;BME280;3488;42.616;23.350;2023-03-12T10:39:54;62473.38;;;4.59;49.94
6899;BME280;3488;42.616;23.350;2023-03-12T10:42:22;62447.09;;;4.33;49.52
6899;BME280;3488;42.616;23.350;2023-03-12T10:44:51;62481.03;;;4.64;49.05
6899;BME280;3488;42.616;23.350;2023-03-12T10:47:32;62491.47;;;4.82;47.86
6899;BME280;3488;42.616;23.350;2023-03-12T10:50:12;62486.75;;;4.72;49.09
6899;BME280;3488;42.616;23.350;2023-03-12T10:52:40;62460.06;;;4.51;49.29
6899;BME280;3488;42.616;23.350;2023-03-12T10:55:15;62502.78;;;4.93;48.32
6899;BME280;3488;42.616;23.350;2023-03-12T10:57:46;62526.88;;;5.11;46.98
6899;BME280;3488;42.616;23.350;2023-03-12T11:00:18;62527.47;;;5.14;47.37
6899;BME280;3488;42.616;23.350;2023-03-12T11:02:46;62506.88;;;4.94;47.66
6899;BME280;3488;42.616;23.350;2023-03-12T11:05:22;62486.75;;;4.72;48.54
6899;BME280;3488;42.616;23.350;2023-03-12T11:07:50;62532.09;;;5.19;48.52
6899;BME280;3488;42.616;23.350;2023-03-12T11:10:24;62538.25;;;5.25;46.56
6899;BME280;3488;42.616;23.350;2023-03-12T11:12:56;62552.75;;;5.41;47.10
6899;BME280;3488;42.616;23.350;2023-03-12T11:15:26;62525.31;;;5.07;46.71
6899;BME280;3488;42.616;23.350;2023-03-12T11:18:18;62486.75;;;4.72;48.49
6899;BME280;3488;42.616;23.350;2023-03-12T11:20:45;62510.94;;;4.96;48.46
6899;BME280;3488;42.616;23.350;2023-03-12T11:23:14;62536.72;;;5.23;47.36
6899;BME280;3488;42.616;23.350;2023-03-12T11:25:50;62573.81;;;5.59;48.14
6899;BME280;3488;42.616;23.350;2023-03-12T11:28:22;62589.78;;;5.75;47.21
6899;BME280;3488;42.616;23.350;2023-03-12T11:30:51;62585.56;;;5.66;46.56
6899;BME280;3488;42.616;23.350;2023-03-12T11:33:19;62596.50;;;5.81;45.41
6899;BME280;3488;42.616;23.350;2023-03-12T11:35:54;62539.25;;;5.23;45.74
6899;BME280;3488;42.616;23.350;2023-03-12T11:38:31;62560.88;;;5.44;46.09
6899;BME280;3488;42.616;23.350;2023-03-12T11:41:10;62590.81;;;5.76;45.97
6899;BME280;3488;42.616;23.350;2023-03-12T11:46:46;62578.41;;;5.61;46.21
6899;BME280;3488;42.616;23.350;2023-03-12T11:49:27;62552.19;;;5.38;45.87
6899;BME280;3488;42.616;23.350;2023-03-12T11:52:03;62565.56;;;5.51;47.19
6899;BME280;3488;42.616;23.350;2023-03-12T11:54:48;62616.56;;;5.99;45.52
6899;BME280;3488;42.616;23.350;2023-03-12T11:57:30;62633.03;;;6.15;44.96
6899;BME280;3488;42.616;23.350;2023-03-12T12:00:09;62617.13;;;6.02;45.16
6899;BME280;3488;42.616;23.350;2023-03-12T12:05:47;62645.94;;;6.27;43.95
6899;BME280;3488;42.616;23.350;2023-03-12T12:08:30;62635.66;;;6.20;43.47
6899;BME280;3488;42.616;23.350;2023-03-12T12:11:05;62587.16;;;5.70;43.67
6899;BME280;3488;42.616;23.350;2023-03-12T12:13:45;62561.97;;;5.48;44.83
6899;BME280;3488;42.616;23.350;2023-03-12T12:16:38;62566.59;;;5.52;44.03
6899;BME280;3488;42.616;23.350;2023-03-12T12:19:21;62562.94;;;5.46;44.01
6899;BME280;3488;42.616;23.350;2023-03-12T12:22:06;62569.63;;;5.53;43.76
6899;BME280;3488;42.616;23.350;2023-03-12T12:24:44;62605.81;;;5.93;43.45
6899;BME280;3488;42.616;23.350;2023-03-12T12:27:18;62653.69;;;6.37;41.64
6899;BME280;3488;42.616;23.350;2023-03-12T12:30:01;62688.66;;;6.66;41.98
6899;BME280;3488;42.616;23.350;2023-03-12T12:32:43;62705.81;;;6.90;40.63
6899;BME280;3488;42.616;23.350;2023-03-12T12:35:24;62690.31;;;6.73;42.74
6899;BME280;3488;42.616;23.350;2023-03-12T12:37:56;62706.88;;;6.91;42.63
6899;BME280;3488;42.616;23.350;2023-03-12T12:40:26;62670.66;;;6.51;42.72
6899;BME280;3488;42.616;23.350;2023-03-12T12:43:08;62632.09;;;6.19;44.01
6899;BME280;3488;42.616;23.350;2023-03-12T12:45:40;62642.28;;;6.21;43.75
6899;BME280;3488;42.616;23.350;2023-03-12T12:48:12;62621.13;;;6.01;43.91
6899;BME280;3488;42.616;23.350;2023-03-12T12:50:43;62645.41;;;6.27;42.97
6899;BME280;3488;42.616;23.350;2023-03-12T12:53:17;62663.41;;;6.42;43.41
6899;BME280;3488;42.616;23.350;2023-03-12T12:55:54;62652.69;;;6.36;42.38
6899;BME280;3488;42.616;23.350;2023-03-12T12:58:45;62636.66;;;6.18;43.90
6899;BME280;3488;42.616;23.350;2023-03-12T13:01:19;62655.81;;;6.42;42.52
6899;BME280;3488;42.616;23.350;2023-03-12T13:03:47;62665.97;;;6.44;42.21
6899;BME280;3488;42.616;23.350;2023-03-12T13:06:15;62649.59;;;6.33;42.75
6899;BME280;3488;42.616;23.350;2023-03-12T13:09:00;62648.56;;;6.32;43.39
6899;BME280;3488;42.616;23.350;2023-03-12T13:11:38;62665.06;;;6.48;42.80
6899;BME280;3488;42.616;23.350;2023-03-12T13:14:20;62670.16;;;6.51;43.15
6899;BME280;3488;42.616;23.350;2023-03-12T13:17:06;62636.69;;;6.21;44.09
6899;BME280;3488;42.616;23.350;2023-03-12T13:19:38;62644.38;;;6.26;44.28
6899;BME280;3488;42.616;23.350;2023-03-12T13:22:13;62669.13;;;6.50;44.06
6899;BME280;3488;42.616;23.350;2023-03-12T13:24:51;62716.09;;;6.98;42.89
6899;BME280;3488;42.616;23.350;2023-03-12T13:27:22;62722.75;;;7.02;42.08
6899;BME280;3488;42.616;23.350;2023-03-12T13:29:50;62724.34;;;7.06;42.65
6899;BME280;3488;42.616;23.350;2023-03-12T13:33:07;62757.84;;;7.36;41.64
6899;BME280;3488;42.616;23.350;2023-03-12T13:35:37;62729.50;;;7.11;42.51
6899;BME280;3488;42.616;23.350;2023-03-12T13:38:08;62758.94;;;7.40;42.40
6899;BME280;3488;42.616;23.350;2023-03-12T13:41:01;62781.06;;;7.59;41.73
6899;BME280;3488;42.616;23.350;2023-03-12T13:43:48;62779.03;;;7.59;41.27